Time;durP1;ratioP1;P1;durP2;ratioP2;P2;SDS_P1;SDS_P2;PMS_P1;PMS_P2;Temp;Humidity;BMP_temperature;BMP_pressure;BME280_temperature;BME280_humidity;BME280_pressure;Samples;Min_cycle;Max_cycle;Signal;HPM_P1;HPM_P2
2022/03/02 00:02:14;;;;;;;48.88;28.35;;;;;;;5.06;62.29;102578.16;5041343;28;20455;-68
2022/03/02 00:04:39;;;;;;;49.40;27.30;;;;;;;5.05;61.95;102585.47;5042312;28;20380;-69
2022/03/02 00:07:04;;;;;;;50.55;30.00;;;;;;;4.94;62.74;102580.25;5042924;28;20154;-69
2022/03/02 00:09:30;;;;;;;46.42;27.38;;;;;;;4.92;62.78;102585.00;5042042;28;20384;-69
2022/03/02 00:11:57;;;;;;;42.90;25.23;;;;;;;5.00;62.05;102579.63;5042040;28;20507;-69
2022/03/02 00:14:22;;;;;;;46.03;26.40;;;;;;;4.99;61.89;102577.06;5042288;28;20048;-69
2022/03/02 00:16:47;;;;;;;50.22;28.38;;;;;;;4.78;62.61;102578.16;5040844;28;20447;-69
2022/03/02 00:19:13;;;;;;;46.50;26.80;;;;;;;4.85;62.11;102586.59;5041804;28;20052;-68
2022/03/02 00:21:38;;;;;;;43.58;26.95;;;;;;;4.71;63.12;102589.78;5042009;28;20082;-69
2022/03/02 00:24:03;;;;;;;44.22;26.95;;;;;;;4.75;61.84;102585.78;5040873;28;20029;-69
2022/03/02 00:26:30;;;;;;;47.88;27.60;;;;;;;4.58;62.88;102579.25;5042094;28;20020;-69
2022/03/02 00:28:55;;;;;;;48.45;27.63;;;;;;;4.58;62.67;102568.38;5041968;28;20131;-69
2022/03/02 00:31:20;;;;;;;51.92;29.05;;;;;;;4.52;62.93;102569.84;5040104;28;20113;-68
2022/03/02 00:33:45;;;;;;;49.88;29.70;;;;;;;4.45;63.36;102568.69;5041721;28;20021;-69
2022/03/02 00:36:11;;;;;;;44.85;27.20;;;;;;;4.42;62.81;102574.44;5041447;28;20029;-69
2022/03/02 00:38:36;;;;;;;46.75;27.23;;;;;;;4.40;62.46;102565.56;5042154;28;20033;-68
2022/03/02 00:41:01;;;;;;;44.13;26.70;;;;;;;4.37;63.29;102571.31;5041348;28;20031;-69
2022/03/02 00:43:27;;;;;;;43.08;25.80;;;;;;;4.35;63.22;102556.97;5041519;28;20029;-69
2022/03/02 00:45:52;;;;;;;46.38;26.38;;;;;;;4.32;63.40;102568.19;5040280;28;20025;-68
2022/03/02 00:48:18;;;;;;;43.00;26.50;;;;;;;4.27;63.68;102568.63;5041874;28;20472;-69
2022/03/02 00:50:43;;;;;;;46.67;27.70;;;;;;;4.28;62.37;102564.88;5041411;28;20025;-69
2022/03/02 00:53:09;;;;;;;42.95;26.20;;;;;;;4.28;63.52;102564.03;5041133;28;20025;-65
2022/03/02 00:55:36;;;;;;;40.65;24.60;;;;;;;4.29;62.60;102560.31;5042403;28;20040;-69
2022/03/02 00:58:03;;;;;;;44.20;25.50;;;;;;;4.32;62.77;102562.75;5041686;28;20498;-69
2022/03/02 01:00:29;;;;;;;43.58;26.65;;;;;;;4.38;62.26;102559.41;5041214;28;20047;-69
2022/03/02 01:02:55;;;;;;;42.47;24.83;;;;;;;4.41;62.15;102559.13;5040085;28;20420;-69
2022/03/02 01:05:20;;;;;;;41.40;24.05;;;;;;;4.53;61.79;102557.94;5041106;28;20029;-69
2022/03/02 01:07:45;;;;;;;40.80;24.98;;;;;;;4.41;62.27;102557.28;5041429;28;20100;-68
2022/03/02 01:10:11;;;;;;;43.85;25.83;;;;;;;4.45;61.60;102555.09;5041005;28;20037;-69
2022/03/02 01:12:37;;;;;;;41.80;25.38;;;;;;;4.35;62.11;102549.69;5041864;28;20104;-69
2022/03/02 01:15:04;;;;;;;45.38;26.00;;;;;;;4.36;62.38;102542.41;5040742;28;20070;-69
2022/03/02 01:17:30;;;;;;;44.67;26.27;;;;;;;4.46;61.35;102542.34;5039117;28;20107;-69
2022/03/02 01:19:55;;;;;;;43.58;25.63;;;;;;;4.38;62.17;102546.66;5041146;28;20231;-69
2022/03/02 01:22:21;;;;;;;43.63;25.58;;;;;;;4.38;62.12;102552.13;5040808;28;20414;-69
2022/03/02 01:24:46;;;;;;;40.38;25.83;;;;;;;4.43;61.20;102536.19;5040561;28;20031;-69
2022/03/02 01:27:12;;;;;;;42.00;25.00;;;;;;;4.41;61.48;102540.09;5040392;28;20210;-69
2022/03/02 01:29:37;;;;;;;42.63;25.70;;;;;;;4.40;61.74;102538.34;5040755;28;20021;-68
2022/03/02 01:32:06;;;;;;;44.22;24.75;;;;;;;4.39;61.57;102531.19;5039683;28;20399;-69
2022/03/02 01:34:32;;;;;;;40.22;24.58;;;;;;;4.46;61.14;102528.72;5040657;28;20475;-69
2022/03/02 01:36:57;;;;;;;41.88;22.75;;;;;;;4.48;60.17;102530.31;5041246;28;20028;-69
2022/03/02 01:39:22;;;;;;;39.28;23.77;;;;;;;4.60;59.62;102530.97;5040194;28;20041;-69
2022/03/02 01:41:48;;;;;;;36.80;21.42;;;;;;;4.68;59.45;102525.66;5040343;28;20036;-69
2022/03/02 01:44:13;;;;;;;41.13;23.02;;;;;;;4.69;59.53;102530.06;5041127;28;20013;-68
2022/03/02 01:46:39;;;;;;;42.55;24.67;;;;;;;4.58;60.03;102525.69;5039561;28;20080;-68
2022/03/02 01:49:05;;;;;;;38.92;23.63;;;;;;;4.46;59.88;102515.13;5040576;28;20079;-69
2022/03/02 01:51:30;;;;;;;41.17;25.63;;;;;;;4.46;60.38;102516.03;5039172;28;20021;-68
2022/03/02 01:53:56;;;;;;;40.72;24.98;;;;;;;4.45;60.29;102514.28;5040832;28;20387;-69
2022/03/02 01:56:21;;;;;;;41.22;23.20;;;;;;;4.43;59.37;102521.75;5040746;28;20108;-69
2022/03/02 01:58:47;;;;;;;39.05;23.52;;;;;;;4.47;60.02;102519.59;5039819;28;20139;-69
2022/03/02 02:01:13;;;;;;;40.70;23.98;;;;;;;4.41;60.27;102518.34;5039015;28;20021;-69
2022/03/02 02:03:38;;;;;;;40.88;23.67;;;;;;;4.41;59.68;102511.03;5040977;28;20025;-68
2022/03/02 02:06:04;;;;;;;40.17;22.05;;;;;;;4.40;60.70;102511.16;5040884;28;20029;-68
2022/03/02 02:08:30;;;;;;;38.75;23.10;;;;;;;4.39;60.16;102504.00;5040799;28;20037;-69
2022/03/02 02:10:57;;;;;;;37.88;23.25;;;;;;;4.42;60.05;102501.00;5040211;28;20561;-69
2022/03/02 02:13:23;;;;;;;36.05;22.33;;;;;;;4.40;60.21;102503.84;5039925;28;20108;-69
2022/03/02 02:15:49;;;;;;;38.67;23.95;;;;;;;4.39;59.71;102495.84;5039339;28;20226;-68
2022/03/02 02:18:14;;;;;;;39.10;23.02;;;;;;;4.54;59.72;102501.66;5040207;28;20036;-68
2022/03/02 02:20:40;;;;;;;38.25;23.23;;;;;;;4.50;59.45;102501.09;5040548;28;20061;-69
2022/03/02 02:23:06;;;;;;;39.20;22.58;;;;;;;4.58;58.89;102493.03;5040262;28;20207;-68
2022/03/02 02:25:31;;;;;;;36.28;22.13;;;;;;;4.59;58.44;102493.88;5040058;28;20281;-69
2022/03/02 02:27:57;;;;;;;37.40;23.30;;;;;;;4.41;59.45;102491.13;5040921;28;20036;-68
2022/03/02 02:30:23;;;;;;;37.55;23.02;;;;;;;4.43;59.41;102497.25;5039694;28;20116;-68
2022/03/02 02:32:49;;;;;;;38.30;23.00;;;;;;;4.46;59.39;102491.53;5039703;28;20029;-69
2022/03/02 02:35:14;;;;;;;38.78;23.10;;;;;;;4.31;59.98;102490.28;5039848;28;20713;-69
2022/03/02 02:37:40;;;;;;;40.58;23.17;;;;;;;4.25;60.87;102482.72;5040156;28;20033;-69
2022/03/02 02:40:11;;;;;;;38.13;21.50;;;;;;;4.33;59.57;102482.84;5041873;28;20154;-68
2022/03/02 02:42:37;;;;;;;37.15;22.92;;;;;;;4.27;59.52;102478.88;5044607;28;20021;-68
2022/03/02 02:45:04;;;;;;;34.72;22.42;;;;;;;4.12;60.17;102485.78;5043897;28;20171;-69
2022/03/02 02:47:30;;;;;;;38.47;21.92;;;;;;;4.20;59.52;102472.28;5043037;28;20068;-69
2022/03/02 02:49:55;;;;;;;38.95;23.00;;;;;;;4.19;60.52;102475.16;5044099;28;20293;-68
2022/03/02 02:52:20;;;;;;;43.67;23.27;;;;;;;4.14;60.60;102471.03;5043592;28;20035;-68
2022/03/02 02:54:48;;;;;;;35.92;22.55;;;;;;;4.24;59.97;102476.44;5043698;28;20428;-68
2022/03/02 02:57:13;;;;;;;37.53;22.55;;;;;;;4.15;60.40;102472.72;5043625;28;20044;-69
2022/03/02 02:59:38;;;;;;;40.28;24.00;;;;;;;4.15;60.17;102475.44;5043172;28;20130;-68
2022/03/02 03:02:04;;;;;;;36.95;20.52;;;;;;;4.09;60.47;102473.34;5042323;28;20033;-69
2022/03/02 03:04:29;;;;;;;39.75;22.88;;;;;;;4.08;60.30;102466.19;5059662;23;20060;-69
2022/03/02 03:06:55;;;;;;;37.38;21.83;;;;;;;4.00;60.57;102474.22;5062399;28;20013;-69
2022/03/02 03:09:20;;;;;;;37.22;23.30;;;;;;;3.94;60.55;102471.25;5063014;28;20061;-69
2022/03/02 03:11:45;;;;;;;37.38;22.48;;;;;;;3.95;61.01;102470.22;5063325;28;20355;-69
2022/03/02 03:14:13;;;;;;;36.78;21.65;;;;;;;3.88;61.03;102469.97;5063453;28;20028;-69
2022/03/02 03:16:42;;;;;;;37.78;22.25;;;;;;;3.81;61.10;102471.56;5062436;28;20021;-69
2022/03/02 03:19:08;;;;;;;35.72;20.63;;;;;;;3.79;60.78;102466.25;5064203;28;20021;-69
2022/03/02 03:21:34;;;;;;;37.45;23.05;;;;;;;3.81;61.04;102466.13;5063958;28;20044;-69
2022/03/02 03:23:59;;;;;;;36.88;21.70;;;;;;;3.77;61.34;102464.72;5063122;28;20032;-69
2022/03/02 03:26:25;;;;;;;35.75;21.77;;;;;;;3.75;61.30;102463.97;5062243;28;20025;-69
2022/03/02 03:28:50;;;;;;;36.40;21.85;;;;;;;3.73;61.33;102469.56;5063432;28;20036;-69
2022/03/02 03:31:15;;;;;;;39.25;23.23;;;;;;;3.77;61.12;102464.72;5061855;28;20028;-68
2022/03/02 03:33:41;;;;;;;35.00;22.02;;;;;;;3.71;61.11;102466.16;5062690;28;20043;-69
2022/03/02 03:36:06;;;;;;;34.85;22.05;;;;;;;3.66;61.59;102470.31;5062031;28;20021;-69
2022/03/02 03:38:32;;;;;;;38.72;21.33;;;;;;;3.62;61.69;102461.59;5062532;28;20024;-69
2022/03/02 03:40:57;;;;;;;34.55;21.70;;;;;;;3.61;61.60;102470.75;5062989;28;20104;-69
2022/03/02 03:43:22;;;;;;;36.42;23.05;;;;;;;3.55;61.86;102461.31;5062637;28;20107;-69
2022/03/02 03:45:49;;;;;;;34.83;21.50;;;;;;;3.51;61.42;102465.31;5061277;28;20033;-69
2022/03/02 03:48:14;;;;;;;36.08;21.33;;;;;;;3.48;61.44;102465.59;5062688;28;20029;-69
2022/03/02 03:50:40;;;;;;;35.47;21.27;;;;;;;3.50;61.30;102470.91;5062747;28;20016;-70
2022/03/02 03:53:05;;;;;;;37.67;21.08;;;;;;;3.45;62.28;102476.78;5063029;28;20031;-69
2022/03/02 03:55:30;;;;;;;29.17;18.23;;;;;;;3.57;60.99;102461.16;5062189;28;20107;-70
2022/03/02 03:57:56;;;;;;;34.45;21.73;;;;;;;3.70;60.91;102461.72;5062471;28;20232;-70
2022/03/02 04:00:22;;;;;;;37.40;21.13;;;;;;;3.58;61.15;102462.88;5061707;28;20075;-69
2022/03/02 04:02:47;;;;;;;37.60;22.13;;;;;;;3.52;61.86;102463.47;5062409;28;20073;-69
2022/03/02 04:05:13;;;;;;;35.83;21.35;;;;;;;3.40;62.67;102468.19;5062104;28;20508;-69
2022/03/02 04:07:38;;;;;;;34.65;21.23;;;;;;;3.27;63.54;102465.75;5062419;28;20020;-69
2022/03/02 04:10:06;;;;;;;34.67;21.20;;;;;;;3.19;63.29;102454.75;5062769;28;20047;-69
2022/03/02 04:12:31;;;;;;;33.10;21.20;;;;;;;3.11;63.52;102447.34;5062197;28;20151;-69
2022/03/02 04:14:56;;;;;;;34.90;20.35;;;;;;;3.09;62.87;102446.63;5062400;28;20468;-70
2022/03/02 04:17:23;;;;;;;33.35;20.92;;;;;;;3.10;63.00;102442.06;5060402;28;20475;-69
2022/03/02 04:19:48;;;;;;;31.65;20.15;;;;;;;3.11;62.88;102443.75;5061944;28;20503;-69
2022/03/02 04:22:14;;;;;;;34.22;20.42;;;;;;;3.11;63.23;102443.75;5061574;28;20031;-69
2022/03/02 04:24:39;;;;;;;36.78;21.52;;;;;;;3.10;62.82;102434.78;5062088;28;20020;-69
2022/03/02 04:27:05;;;;;;;33.40;20.67;;;;;;;3.08;63.42;102436.75;5062162;28;20029;-69
2022/03/02 04:29:30;;;;;;;32.95;19.95;;;;;;;3.05;63.26;102431.63;5061532;28;20025;-70
2022/03/02 04:31:55;;;;;;;36.67;20.80;;;;;;;3.09;63.33;102430.34;5060207;28;20461;-69
2022/03/02 04:34:21;;;;;;;37.90;21.42;;;;;;;3.07;64.08;102432.31;5061965;28;20028;-69
2022/03/02 04:36:46;;;;;;;32.78;20.65;;;;;;;3.03;63.87;102432.75;5061866;28;20025;-70
2022/03/02 04:39:11;;;;;;;34.60;20.30;;;;;;;2.99;64.62;102429.50;5060932;28;20033;-69
2022/03/02 04:41:36;;;;;;;34.72;20.35;;;;;;;2.99;64.49;102425.88;5061559;28;20078;-70
2022/03/02 04:44:02;;;;;;;33.75;20.63;;;;;;;2.97;65.20;102426.03;5060839;28;20027;-69
2022/03/02 04:46:27;;;;;;;33.72;20.80;;;;;;;2.93;65.34;102424.59;5059941;28;20024;-69
2022/03/02 04:48:52;;;;;;;36.50;21.33;;;;;;;2.90;65.19;102415.91;5061407;28;20102;-70
2022/03/02 04:51:18;;;;;;;33.78;19.48;;;;;;;2.88;64.18;102418.75;5060917;28;20186;-69
2022/03/02 04:53:43;;;;;;;33.70;20.08;;;;;;;2.85;65.49;102419.91;5061723;28;20034;-69
2022/03/02 04:56:08;;;;;;;31.90;19.80;;;;;;;2.84;64.74;102420.91;5061002;28;20070;-69
2022/03/02 04:58:34;;;;;;;32.47;20.17;;;;;;;2.82;66.83;102427.44;5061934;28;20034;-69
2022/03/02 05:00:59;;;;;;;33.70;20.50;;;;;;;2.81;64.98;102418.47;5060001;28;20445;-70
2022/03/02 05:03:24;;;;;;;31.50;19.15;;;;;;;2.81;65.14;102417.59;5060112;28;20021;-69
2022/03/02 05:05:50;;;;;;;31.42;20.13;;;;;;;2.79;65.09;102422.34;5062010;28;20459;-69
2022/03/02 05:08:15;;;;;;;30.83;20.60;;;;;;;2.83;63.99;102416.44;5061087;28;20442;-69
2022/03/02 05:10:41;;;;;;;34.38;20.20;;;;;;;2.84;64.96;102415.47;5060878;28;20024;-69
2022/03/02 05:13:06;;;;;;;34.08;20.13;;;;;;;2.80;65.53;102421.31;5061186;28;20127;-69
2022/03/02 05:15:31;;;;;;;30.13;18.92;;;;;;;2.79;64.25;102415.03;5059972;28;20489;-69
2022/03/02 05:17:58;;;;;;;33.35;19.52;;;;;;;2.78;65.22;102409.75;5061179;28;20029;-69
2022/03/02 05:20:23;;;;;;;34.95;20.90;;;;;;;2.73;65.74;102406.59;5060292;28;20036;-69
2022/03/02 05:22:49;;;;;;;32.67;20.42;;;;;;;2.70;64.69;102404.19;5060928;28;20048;-69
2022/03/02 05:25:18;;;;;;;32.90;19.35;;;;;;;2.68;64.96;102400.72;5061039;28;20161;-69
2022/03/02 05:27:43;;;;;;;;;;;;;;;2.70;64.47;102409.59;5061334;28;20024;-69
2022/03/02 05:30:10;;;;;;;35.13;20.13;;;;;;;2.63;64.78;102408.44;5059960;28;19999;-70
2022/03/02 05:32:36;;;;;;;36.05;20.00;;;;;;;2.58;66.03;102407.00;5061267;28;20375;-69
2022/03/02 05:35:02;;;;;;;33.50;19.95;;;;;;;2.54;65.88;102405.59;5058970;28;20191;-69
2022/03/02 05:37:27;;;;;;;31.38;20.50;;;;;;;2.50;66.52;102414.13;5060978;28;20033;-69
2022/03/02 05:39:52;;;;;;;31.30;19.08;;;;;;;2.49;64.48;102398.88;5060861;28;20035;-69
2022/03/02 05:42:17;;;;;;;37.67;20.00;;;;;;;2.49;64.30;102402.44;5060774;28;20032;-69
2022/03/02 05:44:45;;;;;;;33.13;18.42;;;;;;;2.51;64.72;102403.13;5060404;28;20539;-69
2022/03/02 05:47:10;;;;;;;28.70;17.80;;;;;;;2.53;64.35;102398.41;5059167;28;20013;-69
2022/03/02 05:49:35;;;;;;;31.25;18.67;;;;;;;2.49;64.66;102399.72;5061775;28;20462;-69
2022/03/02 05:52:01;;;;;;;29.17;18.38;;;;;;;2.48;64.33;102397.97;5060808;28;20024;-69
2022/03/02 05:54:26;;;;;;;33.10;19.00;;;;;;;2.53;63.42;102398.41;5060096;28;20021;-69
2022/03/02 05:56:52;;;;;;;30.83;19.50;;;;;;;2.54;63.43;102402.88;5060475;28;20063;-69
2022/03/02 05:59:17;;;;;;;30.85;20.60;;;;;;;2.52;63.87;102399.44;5060594;28;20402;-69
2022/03/02 06:01:44;;;;;;;33.92;20.20;;;;;;;2.59;63.27;102408.72;5059714;28;20036;-69
2022/03/02 06:04:11;;;;;;;30.98;18.80;;;;;;;2.60;63.57;102407.72;5060298;28;20402;-69
2022/03/02 06:06:37;;;;;;;30.73;18.75;;;;;;;2.61;62.46;102403.16;5060638;28;20047;-69
2022/03/02 06:09:05;;;;;;;30.83;19.27;;;;;;;2.59;63.64;102408.72;5058674;28;20028;-69
2022/03/02 06:11:32;;;;;;;29.08;18.45;;;;;;;2.57;64.17;102407.16;5060195;28;20024;-69
2022/03/02 06:13:57;;;;;;;35.35;19.13;;;;;;;2.53;63.70;102408.41;5060674;28;20300;-69
2022/03/02 06:16:24;;;;;;;33.88;19.55;;;;;;;2.53;63.70;102409.28;5061014;28;20097;-69
2022/03/02 06:18:50;;;;;;;34.20;19.20;;;;;;;2.54;63.27;102402.88;5065017;28;20032;-69
2022/03/02 06:21:18;;;;;;;32.50;18.50;;;;;;;2.56;63.49;102413.56;5064053;28;20032;-69
2022/03/02 06:23:44;;;;;;;33.00;20.88;;;;;;;2.56;64.48;102413.56;5063816;28;20068;-69
2022/03/02 06:26:09;;;;;;;31.48;19.30;;;;;;;2.56;63.63;102409.00;5062661;28;20067;-66
2022/03/02 06:28:34;;;;;;;30.63;19.42;;;;;;;2.58;64.60;102407.00;5064684;28;20028;-71
2022/03/02 06:31:00;;;;;;;33.90;19.77;;;;;;;2.55;64.72;102403.72;5062862;28;20035;-69
2022/03/02 06:33:25;;;;;;;29.58;18.75;;;;;;;2.52;64.23;102414.84;5063986;28;20875;-69
2022/03/02 06:35:51;;;;;;;29.02;19.52;;;;;;;2.46;65.73;102418.13;5064104;28;20051;-69
2022/03/02 06:38:17;;;;;;;29.70;19.10;;;;;;;2.47;65.50;102408.97;5063874;28;20491;-69
2022/03/02 06:40:59;;;;;;;36.58;21.00;;;;;;;2.49;64.72;102418.72;5063700;28;20078;-69
2022/03/02 06:43:26;;;;;;;34.63;18.40;;;;;;;2.47;64.09;102409.84;5063789;28;20107;-69
2022/03/02 06:45:59;;;;;;;33.22;20.00;;;;;;;2.51;63.53;102424.84;5062090;28;20054;-69
2022/03/02 06:48:55;;;;;;;31.13;18.63;;;;;;;2.58;63.63;102427.84;5063568;28;20051;-69
2022/03/02 06:51:23;;;;;;;32.00;19.52;;;;;;;2.60;63.78;102424.00;5063259;28;20028;-69
2022/03/02 06:53:50;;;;;;;30.17;18.50;;;;;;;2.68;62.70;102419.72;5064068;28;20077;-69
2022/03/02 06:56:18;;;;;;;31.98;18.88;;;;;;;2.75;63.70;102424.47;5063661;28;20111;-69
2022/03/02 06:58:55;;;;;;;30.45;19.27;;;;;;;2.86;62.61;102421.59;5064065;28;20098;-69
2022/03/02 07:01:29;;;;;;;31.77;18.95;;;;;;;2.95;62.36;102425.34;5061621;28;20059;-69
2022/03/02 07:03:58;;;;;;;28.65;17.77;;;;;;;2.99;61.14;102432.19;5063322;28;20060;-69
2022/03/02 07:06:25;;;;;;;30.52;18.75;;;;;;;3.01;61.03;102435.63;5063529;28;20028;-69
2022/03/02 07:08:51;;;;;;;28.75;19.00;;;;;;;3.05;60.56;102434.34;5063538;28;20021;-70
2022/03/02 07:11:17;;;;;;;31.30;17.23;;;;;;;3.15;59.21;102420.75;5062847;28;20124;-70
2022/03/02 07:13:46;;;;;;;29.85;17.58;;;;;;;3.20;60.11;102423.91;5063688;28;20029;-70
2022/03/02 07:16:16;;;;;;;29.75;18.48;;;;;;;3.25;59.66;102432.47;5061975;28;20097;-70
2022/03/02 07:18:43;;;;;;;29.90;19.30;;;;;;;3.29;59.13;102435.75;5063048;28;20119;-70
2022/03/02 07:21:14;;;;;;;28.17;19.02;;;;;;;3.37;58.58;102430.47;5063540;28;20032;-66
2022/03/02 07:23:50;;;;;;;29.80;18.35;;;;;;;3.44;58.48;102428.88;5063639;28;20229;-70
2022/03/02 07:26:18;;;;;;;29.25;18.40;;;;;;;3.53;57.94;102430.72;5061733;28;20577;-69
2022/03/02 07:28:47;;;;;;;29.55;19.67;;;;;;;3.67;58.29;102425.84;5063134;28;20074;-70
2022/03/02 07:31:13;;;;;;;28.45;18.70;;;;;;;3.75;57.89;102428.66;5061238;28;20020;-69
2022/03/02 07:33:42;;;;;;;28.27;18.92;;;;;;;3.87;58.81;102413.91;5063551;28;20240;-70
2022/03/02 07:36:08;;;;;;;34.13;20.33;;;;;;;3.97;58.21;102414.72;5063728;28;20021;-69
2022/03/02 07:38:34;;;;;;;33.38;20.50;;;;;;;4.05;57.56;102414.81;5063934;28;20103;-70
2022/03/02 07:40:59;;;;;;;29.95;18.52;;;;;;;4.16;58.23;102411.94;5062773;28;20609;-70
2022/03/02 07:43:24;;;;;;;29.70;18.65;;;;;;;4.25;57.25;102415.59;5062130;28;20024;-69
2022/03/02 07:45:50;;;;;;;28.05;18.98;;;;;;;4.29;57.07;102422.44;5061447;28;20111;-70
2022/03/02 07:48:16;;;;;;;27.25;17.65;;;;;;;4.35;55.51;102420.97;5062329;28;20347;-69
2022/03/02 07:50:42;;;;;;;29.23;18.52;;;;;;;4.45;56.48;102427.22;5063239;28;20086;-70
2022/03/02 07:53:10;;;;;;;30.90;18.05;;;;;;;4.50;55.83;102422.19;5062993;28;20099;-69
2022/03/02 07:55:36;;;;;;;27.70;17.85;;;;;;;4.67;55.06;102415.94;5062285;28;20017;-70
2022/03/02 07:58:03;;;;;;;28.75;16.83;;;;;;;4.78;54.35;102414.84;5062314;28;20451;-69
2022/03/02 08:00:29;;;;;;;24.85;16.85;;;;;;;4.93;54.04;102416.03;5061344;28;20082;-70
2022/03/02 08:02:59;;;;;;;32.95;18.15;;;;;;;5.32;52.51;102407.53;5061916;28;20028;-70
2022/03/02 08:05:26;;;;;;;27.48;17.73;;;;;;;5.52;52.29;102410.03;5062082;28;20385;-69
2022/03/02 08:07:51;;;;;;;27.13;17.52;;;;;;;5.60;51.58;102421.00;5062482;28;20036;-69
2022/03/02 08:10:18;;;;;;;26.20;17.48;;;;;;;5.71;51.90;102410.69;5061779;28;20343;-70
2022/03/02 08:12:44;;;;;;;26.15;15.98;;;;;;;5.81;51.68;102409.72;5061922;28;20078;-69
2022/03/02 08:15:10;;;;;;;28.40;17.17;;;;;;;5.88;50.98;102405.34;5061311;28;20020;-66
2022/03/02 08:17:35;;;;;;;25.38;15.52;;;;;;;6.13;49.62;102411.81;5062192;28;20027;-69
2022/03/02 08:20:01;;;;;;;26.58;17.52;;;;;;;6.70;49.85;102403.84;5062105;28;20028;-70
2022/03/02 08:22:29;;;;;;;23.23;15.88;;;;;;;6.98;47.54;102402.50;5061420;28;20029;-69
2022/03/02 08:25:11;;;;;;;25.40;16.75;;;;;;;7.09;48.89;102398.59;5062040;28;20021;-70
2022/03/02 08:27:39;;;;;;;24.52;16.38;;;;;;;7.66;45.35;102400.47;5062656;28;20016;-70
2022/03/02 08:30:06;;;;;;;;;;;;;;;8.19;48.48;102398.94;5060822;28;20055;-70
2022/03/02 08:32:35;;;;;;;24.55;15.88;;;;;;;8.83;43.85;102397.78;5059875;28;19924;-70
2022/03/02 08:35:00;;;;;;;23.23;16.73;;;;;;;9.20;43.03;102389.81;5062170;28;20082;-69
2022/03/02 08:37:27;;;;;;;20.75;14.82;;;;;;;9.42;41.07;102385.31;5061773;28;20040;-69
2022/03/02 08:39:52;;;;;;;20.98;14.82;;;;;;;9.48;43.05;102390.94;5061449;28;20032;-69
2022/03/02 08:42:17;;;;;;;24.27;15.73;;;;;;;9.45;41.76;102376.72;5061519;28;20035;-69
2022/03/02 08:44:45;;;;;;;21.30;14.65;;;;;;;9.53;41.65;102380.25;5061243;28;20039;-69
2022/03/02 08:47:11;;;;;;;24.42;14.85;;;;;;;9.66;40.78;102379.59;5061470;28;20047;-68
2022/03/02 08:49:36;;;;;;;21.65;14.93;;;;;;;10.06;40.04;102385.69;5061964;28;20514;-69
2022/03/02 08:52:02;;;;;;;26.10;16.10;;;;;;;10.22;40.01;102385.47;5061649;28;20286;-69
2022/03/02 08:54:34;;;;;;;23.08;15.95;;;;;;;10.42;38.95;102385.78;5061008;28;20025;-69
2022/03/02 08:57:02;;;;;;;21.73;15.50;;;;;;;10.64;38.28;102386.66;5060657;28;20027;-72
2022/03/02 08:59:31;;;;;;;20.88;15.63;;;;;;;10.84;38.88;102385.00;5060134;28;20119;-71
2022/03/02 09:01:56;;;;;;;23.13;15.75;;;;;;;11.55;37.48;102381.41;5060803;28;20426;-70
2022/03/02 09:04:23;;;;;;;22.75;16.08;;;;;;;12.34;36.80;102379.19;5060674;28;20048;-70
2022/03/02 09:06:49;;;;;;;22.27;14.90;;;;;;;12.79;34.28;102379.59;5061832;28;20028;-69
2022/03/02 09:09:16;;;;;;;23.42;16.13;;;;;;;13.87;32.92;102374.75;5061082;28;20027;-69
2022/03/02 09:11:43;;;;;;;22.42;14.88;;;;;;;14.46;31.85;102384.78;5060829;28;20028;-69
2022/03/02 09:14:08;;;;;;;22.88;15.55;;;;;;;14.72;31.01;102378.31;5060757;28;20082;-69
2022/03/02 09:16:34;;;;;;;23.63;16.10;;;;;;;15.70;30.04;102376.97;5059838;28;20033;-68
2022/03/02 09:18:59;;;;;;;21.95;15.88;;;;;;;15.94;28.87;102376.09;5061280;28;20024;-69
2022/03/02 09:21:25;;;;;;;19.42;14.45;;;;;;;16.08;29.49;102365.72;5061053;28;20028;-69
2022/03/02 09:23:53;;;;;;;22.60;16.10;;;;;;;16.60;27.91;102369.75;5060769;28;20035;-68
2022/03/02 09:26:19;;;;;;;21.63;15.68;;;;;;;17.14;26.80;102363.50;5060376;28;20036;-67
2022/03/02 09:28:46;;;;;;;22.65;15.00;;;;;;;17.35;26.30;102362.91;5060921;28;20035;-68
2022/03/02 09:31:14;;;;;;;18.67;14.57;;;;;;;17.91;27.00;102353.19;5059525;28;20354;-67
2022/03/02 09:33:40;;;;;;;;;;;;;;;18.76;30.04;102349.72;5061745;28;20103;-67
2022/03/02 09:36:11;;;;;;;19.95;15.27;;;;;;;19.13;26.03;102358.47;5060943;28;20006;-67
2022/03/02 09:38:38;;;;;;;20.88;15.07;;;;;;;19.08;24.31;102363.97;5061248;28;20021;-67
2022/03/02 09:41:12;;;;;;;20.83;15.90;;;;;;;19.78;24.23;102353.44;5061268;28;20025;-68
2022/03/02 09:43:41;;;;;;;22.58;16.02;;;;;;;20.48;23.94;102355.56;5061484;28;20402;-67
2022/03/02 09:46:10;;;;;;;24.23;17.33;;;;;;;20.89;22.33;102347.63;5060289;28;20028;-68
2022/03/02 09:48:40;;;;;;;22.67;16.98;;;;;;;20.30;22.05;102336.31;5061233;28;20418;-69
2022/03/02 09:51:07;;;;;;;23.30;17.45;;;;;;;20.18;23.18;102342.03;5061131;28;20032;-67
2022/03/02 09:53:34;;;;;;;23.23;17.35;;;;;;;20.37;23.96;102348.94;5060707;28;20052;-67
2022/03/02 09:56:06;;;;;;;25.73;17.03;;;;;;;20.48;22.18;102349.97;5060648;28;20055;-68
2022/03/02 09:58:37;;;;;;;26.35;17.27;;;;;;;20.87;22.24;102342.28;5060712;28;20751;-67
2022/03/02 10:01:03;;;;;;;24.67;16.83;;;;;;;21.20;21.19;102340.38;5059771;28;20109;-68
2022/03/02 10:03:37;;;;;;;25.73;16.35;;;;;;;20.67;22.63;102347.66;5060028;28;20074;-68
2022/03/02 10:06:04;;;;;;;25.88;18.17;;;;;;;20.76;22.18;102348.03;5061009;28;20028;-68
2022/03/02 10:08:34;;;;;;;25.23;16.67;;;;;;;20.03;21.30;102350.19;5060682;28;20111;-68
2022/03/02 10:11:03;;;;;;;25.27;18.40;;;;;;;20.19;22.11;102347.34;5061073;28;20024;-67
2022/03/02 10:13:30;;;;;;;27.30;18.58;;;;;;;20.45;22.32;102340.13;5060622;28;20074;-68
2022/03/02 10:15:57;;;;;;;27.88;19.23;;;;;;;20.24;21.48;102342.94;5059673;28;20409;-68
2022/03/02 10:18:25;;;;;;;28.67;19.55;;;;;;;20.51;21.99;102341.06;5058924;28;20033;-68
2022/03/02 10:20:59;;;;;;;28.73;19.45;;;;;;;20.59;22.32;102345.34;5060621;28;20359;-68
2022/03/02 10:23:35;;;;;;;26.23;18.75;;;;;;;21.02;22.43;102344.41;5059980;28;20029;-67
2022/03/02 10:26:10;;;;;;;28.20;19.35;;;;;;;21.02;22.92;102330.44;5060503;28;20441;-67
2022/03/02 10:29:04;;;;;;;28.05;19.15;;;;;;;20.96;23.15;102339.88;5060761;28;20033;-68
2022/03/02 10:31:35;;;;;;;28.88;20.38;;;;;;;20.77;21.88;102341.34;5059099;28;20209;-67
2022/03/02 10:34:22;;;;;;;28.50;18.77;;;;;;;21.19;21.23;102333.94;5060101;28;20499;-68
2022/03/02 10:36:56;;;;;;;25.02;15.27;;;;;;;20.98;20.36;102327.34;5058447;28;20058;-67
2022/03/02 10:39:53;;;;;;;32.92;20.92;;;;;;;19.74;22.51;102332.75;5059453;28;20032;-67
2022/03/02 10:42:31;;;;;;;32.33;19.98;;;;;;;19.65;23.58;102332.34;5059634;28;20021;-67
2022/03/02 10:45:04;;;;;;;31.37;20.97;;;;;;;19.90;22.90;102329.06;5059489;28;20387;-67
2022/03/02 10:47:31;;;;;;;26.60;18.35;;;;;;;19.48;21.36;102323.97;5058383;28;20286;-67
2022/03/02 10:49:59;;;;;;;28.20;19.42;;;;;;;19.36;22.08;102328.75;5060134;28;20195;-67
2022/03/02 10:52:26;;;;;;;30.17;20.35;;;;;;;19.82;22.21;102327.59;5059833;28;20024;-66
2022/03/02 10:54:54;;;;;;;37.78;23.70;;;;;;;20.11;22.75;102325.44;5060171;28;20423;-67
2022/03/02 10:57:23;;;;;;;;;;;;;;;20.80;23.05;102330.50;5060046;28;20032;-67
2022/03/02 10:59:52;;;;;;;25.67;17.00;;;;;;;20.25;20.93;102323.13;5059218;28;20019;-67
2022/03/02 11:02:21;;;;;;;29.85;19.55;;;;;;;19.34;21.38;102323.44;5060560;28;20475;-67
2022/03/02 11:04:48;;;;;;;26.70;18.95;;;;;;;19.25;22.48;102330.53;5063307;28;20690;-67
2022/03/02 11:07:16;;;;;;;27.25;19.50;;;;;;;19.92;22.66;102312.91;5063043;28;20036;-66
2022/03/02 11:09:51;;;;;;;39.58;24.75;;;;;;;20.14;21.97;102313.78;5063666;28;20454;-67
2022/03/02 11:12:20;;;;;;;28.23;19.58;;;;;;;19.69;22.18;102309.25;5063010;28;20063;-67
2022/03/02 11:15:02;;;;;;;31.98;19.88;;;;;;;19.78;22.12;102306.88;5062307;28;20490;-67
2022/03/02 11:17:28;;;;;;;48.05;31.77;;;;;;;20.22;21.36;102306.91;5061827;28;20028;-66